createdAt,value
2016-12-17T00:00:02.421Z,1024.8
2016-12-17T00:01:02.398Z,1024.78
2016-12-17T00:02:02.377Z,1024.81
2016-12-17T00:03:02.355Z,1024.78
2016-12-17T00:04:02.330Z,1024.82
2016-12-17T00:05:02.309Z,1024.85
2016-12-17T00:06:02.286Z,1024.81
2016-12-17T00:07:02.262Z,1024.82
2016-12-17T00:08:02.240Z,1024.86
2016-12-17T00:09:02.220Z,1024.83
2016-12-17T00:10:02.199Z,1024.84
2016-12-17T00:11:02.173Z,1024.86
2016-12-17T00:12:02.150Z,1024.85
2016-12-17T00:13:02.129Z,1024.91
2016-12-17T00:14:02.108Z,1024.85
2016-12-17T00:15:02.092Z,1024.83
2016-12-17T00:16:02.072Z,1024.87
2016-12-17T00:17:02.133Z,1024.87
2016-12-17T00:18:02.018Z,1024.89
2016-12-17T00:19:01.996Z,1024.94
2016-12-17T00:20:01.973Z,1024.97
2016-12-17T00:21:02.152Z,1025.01
2016-12-17T00:22:01.931Z,1025.03
2016-12-17T00:23:01.907Z,1025.01
2016-12-17T00:24:01.886Z,1025.02
2016-12-17T00:25:01.864Z,1025.06
2016-12-17T00:26:01.839Z,1025.03
2016-12-17T00:27:01.816Z,1025.02
2016-12-17T00:28:01.795Z,1025.05
2016-12-17T00:29:01.773Z,1025.05
2016-12-17T00:30:01.750Z,1025.07
2016-12-17T00:31:01.728Z,1025.03
2016-12-17T00:32:01.707Z,1025.05
2016-12-17T00:33:01.683Z,1025.06
2016-12-17T00:34:01.660Z,1025.09
2016-12-17T00:35:01.640Z,1025.07
2016-12-17T00:36:01.618Z,1025.02
2016-12-17T00:37:01.597Z,1025.03
2016-12-17T00:38:01.572Z,1025.02
2016-12-17T00:39:01.551Z,1025.04
2016-12-17T00:40:01.527Z,1025.06
2016-12-17T00:41:01.506Z,1025.03
2016-12-17T00:42:01.484Z,1025.04
2016-12-17T00:43:01.462Z,1025.02
2016-12-17T00:44:01.439Z,1025.02
2016-12-17T00:45:01.416Z,1025
2016-12-17T00:46:01.395Z,1024.98
2016-12-17T00:47:01.372Z,1025.01
2016-12-17T00:48:01.352Z,1024.99
2016-12-17T00:49:01.329Z,1025.02
2016-12-17T00:50:01.309Z,1025.06
2016-12-17T00:51:01.284Z,1025.06
2016-12-17T00:52:01.264Z,1025.07
2016-12-17T00:53:01.241Z,1025.02
2016-12-17T00:54:01.228Z,1025.04
2016-12-17T00:55:01.201Z,1025.03
2016-12-17T00:56:01.176Z,1025.06
2016-12-17T00:57:01.151Z,1025.07
2016-12-17T00:58:01.130Z,1025.12
2016-12-17T00:59:01.109Z,1025.11
2016-12-17T01:00:01.086Z,1025.13
2016-12-17T01:01:01.062Z,1025.14
2016-12-17T01:02:01.041Z,1025.17
2016-12-17T01:03:01.018Z,1025.2
2016-12-17T01:04:00.996Z,1025.15
2016-12-17T01:05:00.979Z,1025.17
2016-12-17T01:06:00.951Z,1025.2
2016-12-17T01:07:00.929Z,1025.19
2016-12-17T01:08:00.908Z,1025.23
2016-12-17T01:09:00.884Z,1025.22
2016-12-17T01:10:00.866Z,1025.2
2016-12-17T01:11:00.843Z,1025.23
2016-12-17T01:12:00.823Z,1025.2
2016-12-17T01:13:00.799Z,1025.26
2016-12-17T01:14:00.775Z,1025.27
2016-12-17T01:15:00.760Z,1025.24
2016-12-17T01:16:00.731Z,1025.25
2016-12-17T01:17:00.719Z,1025.28
2016-12-17T01:18:00.687Z,1025.28
2016-12-17T01:19:00.680Z,1025.3
2016-12-17T01:20:00.643Z,1025.33
2016-12-17T01:21:00.622Z,1025.32
2016-12-17T01:22:00.602Z,1025.27
2016-12-17T01:23:00.588Z,1025.3
2016-12-17T01:24:00.552Z,1025.27
2016-12-17T01:25:00.532Z,1025.29
2016-12-17T01:26:00.511Z,1025.26
2016-12-17T01:27:00.488Z,1025.27
2016-12-17T01:28:00.466Z,1025.27
2016-12-17T01:29:00.443Z,1025.31
2016-12-17T01:30:00.421Z,1025.35
2016-12-17T01:31:00.399Z,1025.34
2016-12-17T01:32:00.379Z,1025.3
2016-12-17T01:33:00.356Z,1025.38
2016-12-17T01:34:00.334Z,1025.35
2016-12-17T01:35:00.314Z,1025.38
2016-12-17T01:36:00.291Z,1025.4
2016-12-17T01:37:00.269Z,1025.43
2016-12-17T01:38:00.247Z,1025.47
2016-12-17T01:39:00.225Z,1025.5
2016-12-17T01:40:00.204Z,1025.51
2016-12-17T01:41:00.181Z,1025.52
2016-12-17T01:42:00.161Z,1025.48
2016-12-17T01:43:00.139Z,1025.52
2016-12-17T01:44:00.117Z,1025.56
2016-12-17T01:45:00.098Z,1025.6
2016-12-17T01:46:00.076Z,1025.59
2016-12-17T01:47:00.056Z,1025.56
2016-12-17T01:48:00.034Z,1025.56
2016-12-17T01:49:00.014Z,1025.62
2016-12-17T01:49:59.989Z,1025.62
2016-12-17T01:50:59.969Z,1025.67
2016-12-17T01:51:59.946Z,1025.65
2016-12-17T01:52:59.923Z,1025.63
2016-12-17T01:53:59.900Z,1025.56
2016-12-17T01:54:59.880Z,1025.56
2016-12-17T01:55:59.859Z,1025.6
2016-12-17T01:56:59.835Z,1025.62
2016-12-17T01:57:59.815Z,1025.59
2016-12-17T01:58:59.792Z,1025.56
2016-12-17T01:59:59.774Z,1025.44
2016-12-17T02:00:59.751Z,1025.44
2016-12-17T02:01:59.727Z,1025.45
2016-12-17T02:02:59.706Z,1025.49
2016-12-17T02:03:59.684Z,1025.53
2016-12-17T02:04:59.663Z,1025.57
2016-12-17T02:05:59.644Z,1025.58
2016-12-17T02:06:59.623Z,1025.62
2016-12-17T02:07:59.599Z,1025.63
2016-12-17T02:08:59.578Z,1025.59
2016-12-17T02:09:59.561Z,1025.58
2016-12-17T02:10:59.538Z,1025.57
2016-12-17T02:11:59.515Z,1025.55
2016-12-17T02:12:59.495Z,1025.59
2016-12-17T02:13:59.471Z,1025.59
2016-12-17T02:14:59.449Z,1025.55
2016-12-17T02:15:59.430Z,1025.54
2016-12-17T02:16:59.407Z,1025.5
2016-12-17T02:17:59.386Z,1025.56
2016-12-17T02:18:59.363Z,1025.6
2016-12-17T02:19:59.343Z,1025.62
2016-12-17T02:20:59.524Z,1025.56
2016-12-17T02:21:59.303Z,1025.61
2016-12-17T02:22:59.279Z,1025.57
2016-12-17T02:23:59.257Z,1025.63
2016-12-17T02:24:59.236Z,1025.63
2016-12-17T02:25:59.215Z,1025.61
2016-12-17T02:26:59.195Z,1025.67
2016-12-17T02:27:59.172Z,1025.6
2016-12-17T02:28:59.152Z,1025.59
2016-12-17T02:29:59.130Z,1025.64
2016-12-17T02:30:59.108Z,1025.71
2016-12-17T02:31:59.088Z,1025.69
2016-12-17T02:32:59.065Z,1025.69
2016-12-17T02:33:59.044Z,1025.71
2016-12-17T02:34:59.025Z,1025.74
2016-12-17T02:35:59.003Z,1025.71
2016-12-17T02:36:58.984Z,1025.65
2016-12-17T02:37:58.959Z,1025.65
2016-12-17T02:38:58.937Z,1025.68
2016-12-17T02:39:58.917Z,1025.7
2016-12-17T02:40:58.895Z,1025.7
2016-12-17T02:41:58.873Z,1025.73
2016-12-17T02:42:58.853Z,1025.78
2016-12-17T02:43:58.830Z,1025.81
2016-12-17T02:44:58.809Z,1025.81
2016-12-17T02:45:58.789Z,1025.85
2016-12-17T02:46:58.770Z,1025.87
2016-12-17T02:47:58.746Z,1025.84
2016-12-17T02:48:58.724Z,1025.87
2016-12-17T02:49:58.704Z,1025.87
2016-12-17T02:50:58.683Z,1025.92
2016-12-17T02:51:58.661Z,1025.91
2016-12-17T02:52:58.642Z,1025.92
2016-12-17T02:53:58.620Z,1025.93
2016-12-17T02:54:58.597Z,1025.93
2016-12-17T02:55:58.575Z,1025.87
2016-12-17T02:56:58.556Z,1025.85
2016-12-17T02:57:58.538Z,1025.84
2016-12-17T02:58:58.512Z,1025.83
2016-12-17T02:59:58.494Z,1025.81
2016-12-17T03:00:58.472Z,1025.76
2016-12-17T03:01:58.454Z,1025.73
2016-12-17T03:02:58.428Z,1025.74
2016-12-17T03:03:58.406Z,1025.73
2016-12-17T03:04:58.386Z,1025.71
2016-12-17T03:05:58.365Z,1025.7
2016-12-17T03:06:58.343Z,1025.67
2016-12-17T03:07:58.324Z,1025.61
2016-12-17T03:08:58.301Z,1025.63
2016-12-17T03:09:58.280Z,1025.61
2016-12-17T03:10:58.259Z,1025.6
2016-12-17T03:11:58.239Z,1025.55
2016-12-17T03:12:58.219Z,1025.56
2016-12-17T03:13:58.199Z,1025.53
2016-12-17T03:14:58.175Z,1025.52
2016-12-17T03:15:58.159Z,1025.56
2016-12-17T03:16:58.135Z,1025.56
2016-12-17T03:17:58.114Z,1025.56
2016-12-17T03:18:58.094Z,1025.57
2016-12-17T03:19:58.070Z,1025.62
2016-12-17T03:20:58.051Z,1025.62
2016-12-17T03:21:58.030Z,1025.62
2016-12-17T03:22:58.008Z,1025.6
2016-12-17T03:23:57.987Z,1025.67
2016-12-17T03:24:57.967Z,1025.63
2016-12-17T03:25:57.945Z,1025.6
2016-12-17T03:26:57.923Z,1025.61
2016-12-17T03:27:57.903Z,1025.63
2016-12-17T03:28:57.880Z,1025.6
2016-12-17T03:29:57.878Z,1025.6
2016-12-17T03:30:57.842Z,1025.63
2016-12-17T03:31:57.818Z,1025.61
2016-12-17T03:32:57.797Z,1025.6
2016-12-17T03:33:57.777Z,1025.62
2016-12-17T03:34:57.756Z,1025.66
2016-12-17T03:35:57.736Z,1025.64
2016-12-17T03:36:57.716Z,1025.59
2016-12-17T03:37:57.693Z,1025.6
2016-12-17T03:38:57.683Z,1025.61
2016-12-17T03:39:57.658Z,1025.65
2016-12-17T03:40:57.629Z,1025.68
2016-12-17T03:41:57.610Z,1025.64
2016-12-17T03:42:57.608Z,1025.66
2016-12-17T03:43:57.566Z,1025.67
2016-12-17T03:44:57.546Z,1025.68
2016-12-17T03:45:57.525Z,1025.74
2016-12-17T03:46:57.505Z,1025.74
2016-12-17T03:47:57.483Z,1025.76
2016-12-17T03:48:57.464Z,1025.81
2016-12-17T03:49:57.486Z,1025.81
2016-12-17T03:50:57.420Z,1025.85
2016-12-17T03:51:57.400Z,1025.85
2016-12-17T03:52:57.379Z,1025.89
2016-12-17T03:53:57.357Z,1025.84
2016-12-17T03:54:57.338Z,1025.82
2016-12-17T03:55:57.318Z,1025.85
2016-12-17T03:56:57.294Z,1025.85
2016-12-17T03:57:57.275Z,1025.81
2016-12-17T03:58:57.253Z,1025.8
2016-12-17T03:59:57.232Z,1025.8
2016-12-17T04:00:57.213Z,1025.82
2016-12-17T04:01:57.190Z,1025.79
2016-12-17T04:02:57.170Z,1025.82
2016-12-17T04:03:57.152Z,1025.83
2016-12-17T04:04:57.128Z,1025.8
2016-12-17T04:05:57.107Z,1025.86
2016-12-17T04:06:57.087Z,1025.86
2016-12-17T04:07:57.066Z,1025.8
2016-12-17T04:08:57.044Z,1025.8
2016-12-17T04:09:57.024Z,1025.84
2016-12-17T04:10:57.004Z,1025.81
2016-12-17T04:11:56.981Z,1025.82
2016-12-17T04:12:56.963Z,1025.85
2016-12-17T04:13:56.941Z,1025.93
2016-12-17T04:14:56.922Z,1025.91
2016-12-17T04:15:56.900Z,1025.85
2016-12-17T04:16:56.877Z,1025.83
2016-12-17T04:17:56.860Z,1025.77
2016-12-17T04:18:56.837Z,1025.84
2016-12-17T04:19:56.816Z,1025.81
2016-12-17T04:20:56.997Z,1025.79
2016-12-17T04:21:56.775Z,1025.84
2016-12-17T04:22:56.752Z,1025.8
2016-12-17T04:23:56.734Z,1025.83
2016-12-17T04:24:56.711Z,1025.8
2016-12-17T04:25:56.694Z,1025.78
2016-12-17T04:26:56.673Z,1025.82
2016-12-17T04:27:56.650Z,1025.84
2016-12-17T04:28:56.628Z,1025.85
2016-12-17T04:29:56.609Z,1025.84
2016-12-17T04:30:56.586Z,1025.87
2016-12-17T04:31:56.567Z,1025.89
2016-12-17T04:32:56.547Z,1025.9
2016-12-17T04:33:56.523Z,1025.88
2016-12-17T04:34:56.504Z,1025.91
2016-12-17T04:35:56.483Z,1025.96
2016-12-17T04:36:56.463Z,1025.99
2016-12-17T04:37:56.441Z,1026
2016-12-17T04:38:56.425Z,1026.02
2016-12-17T04:39:56.406Z,1025.99
2016-12-17T04:40:56.379Z,1025.99
2016-12-17T04:41:56.358Z,1026
2016-12-17T04:42:56.336Z,1026.01
2016-12-17T04:43:56.317Z,1025.99
2016-12-17T04:44:56.295Z,1025.97
2016-12-17T04:45:56.278Z,1025.99
2016-12-17T04:46:56.254Z,1025.97
2016-12-17T04:47:56.236Z,1026
2016-12-17T04:48:56.213Z,1025.93
2016-12-17T04:49:56.194Z,1025.96
2016-12-17T04:50:56.231Z,1025.96
2016-12-17T04:51:56.151Z,1025.96
2016-12-17T04:52:56.128Z,1025.98
2016-12-17T04:53:56.114Z,1025.98
2016-12-17T04:54:56.091Z,1026
2016-12-17T04:55:56.066Z,1026
2016-12-17T04:56:56.045Z,1025.99
2016-12-17T04:57:56.027Z,1025.98
2016-12-17T04:58:56.010Z,1025.99
2016-12-17T04:59:55.983Z,1026.05
2016-12-17T05:00:55.964Z,1026.04
2016-12-17T05:01:55.946Z,1026.06
2016-12-17T05:02:55.921Z,1026.01
2016-12-17T05:03:55.902Z,1026.04
2016-12-17T05:04:55.879Z,1026.04
2016-12-17T05:05:55.861Z,1026.05
2016-12-17T05:06:55.837Z,1026.08
2016-12-17T05:07:55.821Z,1026.09
2016-12-17T05:08:55.822Z,1026.11
2016-12-17T05:09:55.783Z,1026.11
2016-12-17T05:10:55.758Z,1026.1
2016-12-17T05:11:55.743Z,1026.11
2016-12-17T05:12:55.716Z,1026.15
2016-12-17T05:13:55.703Z,1026.15
2016-12-17T05:14:55.676Z,1026.2
2016-12-17T05:15:55.675Z,1026.2
2016-12-17T05:16:55.634Z,1026.16
2016-12-17T05:17:55.613Z,1026.19
2016-12-17T05:18:55.592Z,1026.19
2016-12-17T05:19:55.569Z,1026.28
2016-12-17T05:20:55.550Z,1026.28
2016-12-17T05:21:55.529Z,1026.26
2016-12-17T05:22:55.508Z,1026.25
2016-12-17T05:23:55.486Z,1026.29
2016-12-17T05:24:55.465Z,1026.3
2016-12-17T05:25:55.450Z,1026.25
2016-12-17T05:26:55.429Z,1026.31
2016-12-17T05:27:55.407Z,1026.36
2016-12-17T05:28:55.382Z,1026.32
2016-12-17T05:29:55.367Z,1026.32
2016-12-17T05:30:55.343Z,1026.36
2016-12-17T05:31:55.321Z,1026.36
2016-12-17T05:32:55.301Z,1026.38
2016-12-17T05:33:55.283Z,1026.37
2016-12-17T05:34:55.262Z,1026.38
2016-12-17T05:35:55.240Z,1026.36
2016-12-17T05:36:55.218Z,1026.33
2016-12-17T05:37:55.198Z,1026.3
2016-12-17T05:38:55.178Z,1026.35
2016-12-17T05:39:55.157Z,1026.31
2016-12-17T05:40:55.139Z,1026.29
2016-12-17T05:41:55.119Z,1026.34
2016-12-17T05:42:55.097Z,1026.35
2016-12-17T05:43:55.078Z,1026.35
2016-12-17T05:44:55.057Z,1026.37
2016-12-17T05:45:55.034Z,1026.37
2016-12-17T05:46:55.013Z,1026.4
2016-12-17T05:47:54.994Z,1026.36
2016-12-17T05:48:54.973Z,1026.39
2016-12-17T05:49:54.952Z,1026.39
2016-12-17T05:50:54.929Z,1026.4
2016-12-17T05:51:54.910Z,1026.35
2016-12-17T05:52:54.890Z,1026.37
2016-12-17T05:53:54.869Z,1026.34
2016-12-17T05:54:54.850Z,1026.39
2016-12-17T05:55:54.829Z,1026.36
2016-12-17T05:56:54.810Z,1026.35
2016-12-17T05:57:54.787Z,1026.36
2016-12-17T05:58:54.768Z,1026.36
2016-12-17T05:59:54.748Z,1026.35
2016-12-17T06:00:54.726Z,1026.34
2016-12-17T06:01:54.703Z,1026.33
2016-12-17T06:02:54.685Z,1026.33
2016-12-17T06:03:54.665Z,1026.35
2016-12-17T06:04:54.645Z,1026.35
2016-12-17T06:05:54.624Z,1026.39
2016-12-17T06:06:54.603Z,1026.37
2016-12-17T06:07:54.582Z,1026.35
2016-12-17T06:08:54.562Z,1026.36
2016-12-17T06:09:54.541Z,1026.34
2016-12-17T06:10:54.521Z,1026.33
2016-12-17T06:11:54.506Z,1026.27
2016-12-17T06:12:54.480Z,1026.33
2016-12-17T06:13:54.461Z,1026.29
2016-12-17T06:14:54.439Z,1026.33
2016-12-17T06:15:54.418Z,1026.32
2016-12-17T06:16:54.397Z,1026.31
2016-12-17T06:17:54.378Z,1026.36
2016-12-17T06:18:54.357Z,1026.36
2016-12-17T06:19:54.336Z,1026.34
2016-12-17T06:20:54.316Z,1026.42
2016-12-17T06:21:54.296Z,1026.43
2016-12-17T06:22:54.277Z,1026.46
2016-12-17T06:23:54.254Z,1026.45
2016-12-17T06:24:54.235Z,1026.47
2016-12-17T06:25:54.214Z,1026.48
2016-12-17T06:26:54.193Z,1026.53
2016-12-17T06:27:54.172Z,1026.52
2016-12-17T06:28:54.151Z,1026.53
2016-12-17T06:29:54.131Z,1026.51
2016-12-17T06:30:54.112Z,1026.51
2016-12-17T06:31:54.092Z,1026.54
2016-12-17T06:32:54.072Z,1026.59
2016-12-17T06:33:54.050Z,1026.62
2016-12-17T06:34:54.029Z,1026.62
2016-12-17T06:35:54.008Z,1026.62
2016-12-17T06:36:54.153Z,1026.63
2016-12-17T06:37:53.974Z,1026.62
2016-12-17T06:38:53.953Z,1026.65
2016-12-17T06:39:53.929Z,1026.65
2016-12-17T06:40:53.910Z,1026.69
2016-12-17T06:41:53.887Z,1026.72
2016-12-17T06:42:53.866Z,1026.73
2016-12-17T06:43:53.852Z,1026.72
2016-12-17T06:44:53.827Z,1026.71
2016-12-17T06:45:53.806Z,1026.73
2016-12-17T06:46:53.786Z,1026.75
2016-12-17T06:47:53.767Z,1026.79
2016-12-17T06:48:53.748Z,1026.77
2016-12-17T06:49:53.724Z,1026.82
2016-12-17T06:50:53.707Z,1026.83
2016-12-17T06:51:53.686Z,1026.85
2016-12-17T06:52:53.667Z,1026.85
2016-12-17T06:53:53.642Z,1026.78
2016-12-17T06:54:53.627Z,1026.84
2016-12-17T06:55:53.608Z,1026.87
2016-12-17T06:56:53.584Z,1026.9
2016-12-17T06:57:53.566Z,1026.92
2016-12-17T06:58:53.547Z,1026.92
2016-12-17T06:59:53.526Z,1026.98
2016-12-17T07:00:53.504Z,1026.93
2016-12-17T07:01:53.481Z,1027
2016-12-17T07:02:53.462Z,1027.01
2016-12-17T07:03:53.443Z,1027.02
2016-12-17T07:04:53.421Z,1027.04
2016-12-17T07:05:53.400Z,1027.09
2016-12-17T07:06:53.380Z,1027.1
2016-12-17T07:07:53.361Z,1027.09
2016-12-17T07:08:53.341Z,1027.11
2016-12-17T07:09:53.322Z,1027.1
2016-12-17T07:10:53.300Z,1027.09
2016-12-17T07:11:53.279Z,1027.06
2016-12-17T07:12:53.259Z,1027.12
2016-12-17T07:13:53.240Z,1027.11
2016-12-17T07:14:53.220Z,1027.1
2016-12-17T07:15:53.201Z,1027.11
2016-12-17T07:16:53.179Z,1027.11
2016-12-17T07:17:53.159Z,1027.2
2016-12-17T07:18:53.138Z,1027.13
2016-12-17T07:19:53.119Z,1027.16
2016-12-17T07:20:53.100Z,1027.17
2016-12-17T07:21:53.079Z,1027.21
2016-12-17T07:22:53.059Z,1027.23
2016-12-17T07:23:53.040Z,1027.23
2016-12-17T07:24:53.020Z,1027.24
2016-12-17T07:25:52.997Z,1027.23
2016-12-17T07:26:52.980Z,1027.27
2016-12-17T07:27:52.960Z,1027.32
2016-12-17T07:28:52.937Z,1027.31
2016-12-17T07:29:52.919Z,1027.31
2016-12-17T07:30:52.899Z,1027.34
2016-12-17T07:31:52.879Z,1027.36
2016-12-17T07:32:52.861Z,1027.32
2016-12-17T07:33:52.839Z,1027.36
2016-12-17T07:34:52.817Z,1027.37
2016-12-17T07:35:52.799Z,1027.39
2016-12-17T07:36:52.781Z,1027.37
2016-12-17T07:37:52.757Z,1027.38
2016-12-17T07:38:52.737Z,1027.37
2016-12-17T07:39:52.722Z,1027.4
2016-12-17T07:40:52.709Z,1027.39
2016-12-17T07:41:52.682Z,1027.41
2016-12-17T07:42:52.660Z,1027.39
2016-12-17T07:43:52.647Z,1027.43
2016-12-17T07:44:52.622Z,1027.44
2016-12-17T07:45:52.600Z,1027.46
2016-12-17T07:46:52.579Z,1027.49
2016-12-17T07:47:52.559Z,1027.58
2016-12-17T07:48:52.539Z,1027.57
2016-12-17T07:49:52.520Z,1027.52
2016-12-17T07:50:52.498Z,1027.61
2016-12-17T07:51:52.481Z,1027.59
2016-12-17T07:52:52.458Z,1027.57
2016-12-17T07:53:52.439Z,1027.62
2016-12-17T07:54:52.418Z,1027.62
2016-12-17T07:55:52.398Z,1027.62
2016-12-17T07:56:52.378Z,1027.64
2016-12-17T07:57:52.360Z,1027.67
2016-12-17T07:58:52.341Z,1027.66
2016-12-17T07:59:52.319Z,1027.66
2016-12-17T08:00:52.301Z,1027.64
2016-12-17T08:01:52.278Z,1027.64
2016-12-17T08:02:52.259Z,1027.63
2016-12-17T08:03:52.240Z,1027.64
2016-12-17T08:04:52.219Z,1027.62
2016-12-17T08:05:52.206Z,1027.68
2016-12-17T08:06:52.186Z,1027.67
2016-12-17T08:07:52.163Z,1027.71
2016-12-17T08:08:52.144Z,1027.66
2016-12-17T08:09:52.120Z,1027.7
2016-12-17T08:10:52.101Z,1027.72
2016-12-17T08:11:52.082Z,1027.72
2016-12-17T08:12:52.063Z,1027.71
2016-12-17T08:13:52.043Z,1027.74
2016-12-17T08:14:52.021Z,1027.71
2016-12-17T08:15:52.007Z,1027.77
2016-12-17T08:16:51.982Z,1027.78
2016-12-17T08:17:51.963Z,1027.79
2016-12-17T08:18:51.947Z,1027.83
2016-12-17T08:19:51.924Z,1027.83
2016-12-17T08:20:51.905Z,1027.85
2016-12-17T08:21:52.088Z,1027.85
2016-12-17T08:22:51.864Z,1027.83
2016-12-17T08:23:51.844Z,1027.83
2016-12-17T08:24:51.825Z,1027.8
2016-12-17T08:25:51.808Z,1027.87
2016-12-17T08:26:51.788Z,1027.87
2016-12-17T08:27:51.768Z,1027.91
2016-12-17T08:28:51.748Z,1027.92
2016-12-17T08:29:51.727Z,1027.93
2016-12-17T08:30:51.709Z,1027.95
2016-12-17T08:31:51.687Z,1027.99
2016-12-17T08:32:51.669Z,1027.95
2016-12-17T08:33:51.649Z,1027.99
2016-12-17T08:34:51.629Z,1027.93
2016-12-17T08:35:51.616Z,1027.93
2016-12-17T08:36:51.593Z,1027.95
2016-12-17T08:37:51.577Z,1027.94
2016-12-17T08:38:51.553Z,1027.97
2016-12-17T08:39:51.531Z,1027.98
2016-12-17T08:40:51.513Z,1028
2016-12-17T08:41:51.493Z,1028
2016-12-17T08:42:51.475Z,1027.97
2016-12-17T08:43:51.456Z,1027.98
2016-12-17T08:44:51.438Z,1027.99
2016-12-17T08:45:51.417Z,1028.06
2016-12-17T08:46:51.396Z,1028.07
2016-12-17T08:47:51.378Z,1028.06
2016-12-17T08:48:51.360Z,1028.04
2016-12-17T08:49:51.343Z,1028.09
2016-12-17T08:50:51.321Z,1028.1
2016-12-17T08:51:51.300Z,1028.06
2016-12-17T08:52:51.282Z,1028.07
2016-12-17T08:53:51.263Z,1028.05
2016-12-17T08:54:51.242Z,1028.05
2016-12-17T08:55:51.237Z,1028.07
2016-12-17T08:56:51.205Z,1028.06
2016-12-17T08:57:51.186Z,1028.08
2016-12-17T08:58:51.166Z,1028.13
2016-12-17T08:59:51.148Z,1028.1
2016-12-17T09:00:51.128Z,1028.13
2016-12-17T09:01:51.112Z,1028.16
2016-12-17T09:02:51.090Z,1028.17
2016-12-17T09:03:51.070Z,1028.21
2016-12-17T09:04:51.056Z,1028.19
2016-12-17T09:05:51.032Z,1028.21
2016-12-17T09:06:51.016Z,1028.22
2016-12-17T09:07:50.993Z,1028.2
2016-12-17T09:08:50.973Z,1028.16
2016-12-17T09:09:50.955Z,1028.17
2016-12-17T09:10:50.936Z,1028.18
2016-12-17T09:11:50.916Z,1028.21
2016-12-17T09:12:50.898Z,1028.16
2016-12-17T09:13:50.879Z,1028.21
2016-12-17T09:14:50.860Z,1028.19
2016-12-17T09:15:50.842Z,1028.19
2016-12-17T09:16:50.825Z,1028.23
2016-12-17T09:17:50.804Z,1028.25
2016-12-17T09:18:50.788Z,1028.24
2016-12-17T09:19:50.765Z,1028.23
2016-12-17T09:20:50.788Z,1028.26
2016-12-17T09:21:50.735Z,1028.24
2016-12-17T09:22:50.708Z,1028.29
2016-12-17T09:23:50.688Z,1028.26
2016-12-17T09:24:50.670Z,1028.31
2016-12-17T09:25:50.652Z,1028.32
2016-12-17T09:26:50.633Z,1028.35
2016-12-17T09:27:50.615Z,1028.34
2016-12-17T09:28:50.596Z,1028.4
2016-12-17T09:29:50.576Z,1028.39
2016-12-17T09:30:50.557Z,1028.43
2016-12-17T09:31:50.539Z,1028.42
2016-12-17T09:32:50.521Z,1028.49
2016-12-17T09:33:50.505Z,1028.5
2016-12-17T09:34:50.483Z,1028.49
2016-12-17T09:35:50.465Z,1028.48
2016-12-17T09:36:50.449Z,1028.53
2016-12-17T09:37:50.433Z,1028.5
2016-12-17T09:38:50.406Z,1028.53
2016-12-17T09:39:50.388Z,1028.45
2016-12-17T09:40:50.370Z,1028.5
2016-12-17T09:41:50.362Z,1028.49
2016-12-17T09:42:50.334Z,1028.46
2016-12-17T09:43:50.314Z,1028.47
2016-12-17T09:44:50.296Z,1028.45
2016-12-17T09:45:50.278Z,1028.46
2016-12-17T09:46:50.257Z,1028.44
2016-12-17T09:47:50.240Z,1028.46
2016-12-17T09:48:50.223Z,1028.48
2016-12-17T09:49:50.202Z,1028.48
2016-12-17T09:50:50.190Z,1028.47
2016-12-17T09:51:50.165Z,1028.46
2016-12-17T09:52:50.145Z,1028.46
2016-12-17T09:53:50.135Z,1028.48
2016-12-17T09:54:50.110Z,1028.48
2016-12-17T09:55:50.099Z,1028.5
2016-12-17T09:56:50.072Z,1028.5
2016-12-17T09:57:50.067Z,1028.52
2016-12-17T09:58:50.036Z,1028.58
2016-12-17T09:59:50.016Z,1028.55
2016-12-17T10:00:49.998Z,1028.58
2016-12-17T10:01:49.988Z,1028.56
2016-12-17T10:02:49.961Z,1028.59
2016-12-17T10:03:49.943Z,1028.6
2016-12-17T10:04:49.965Z,1028.56
2016-12-17T10:05:49.909Z,1028.58
2016-12-17T10:06:49.888Z,1028.55
2016-12-17T10:07:49.869Z,1028.56
2016-12-17T10:08:49.851Z,1028.53
2016-12-17T10:09:49.829Z,1028.53
2016-12-17T10:10:49.812Z,1028.48
2016-12-17T10:11:49.794Z,1028.52
2016-12-17T10:12:49.776Z,1028.5
2016-12-17T10:13:49.757Z,1028.47
2016-12-17T10:14:49.738Z,1028.5
2016-12-17T10:15:49.722Z,1028.5
2016-12-17T10:16:49.703Z,1028.51
2016-12-17T10:17:49.683Z,1028.56
2016-12-17T10:18:49.668Z,1028.55
2016-12-17T10:19:49.649Z,1028.55
2016-12-17T10:20:49.628Z,1028.56
2016-12-17T10:21:49.811Z,1028.56
2016-12-17T10:22:49.591Z,1028.59
2016-12-17T10:23:49.575Z,1028.6
2016-12-17T10:24:49.554Z,1028.63
2016-12-17T10:25:49.537Z,1028.62
2016-12-17T10:26:49.518Z,1028.58
2016-12-17T10:27:49.499Z,1028.6
2016-12-17T10:28:49.490Z,1028.6
2016-12-17T10:29:49.465Z,1028.59
2016-12-17T10:30:49.447Z,1028.59
2016-12-17T10:31:49.424Z,1028.54
2016-12-17T10:32:49.407Z,1028.55
2016-12-17T10:33:49.388Z,1028.58
2016-12-17T10:34:49.371Z,1028.54
2016-12-17T10:35:49.352Z,1028.53
2016-12-17T10:36:49.333Z,1028.48
2016-12-17T10:37:49.316Z,1028.48
2016-12-17T10:38:49.296Z,1028.47
2016-12-17T10:39:49.278Z,1028.45
2016-12-17T10:40:49.260Z,1028.46
2016-12-17T10:41:49.241Z,1028.47
2016-12-17T10:42:49.223Z,1028.48
2016-12-17T10:43:49.206Z,1028.5
2016-12-17T10:44:49.187Z,1028.48
2016-12-17T10:45:49.169Z,1028.47
2016-12-17T10:46:49.154Z,1028.47
2016-12-17T10:47:49.132Z,1028.5
2016-12-17T10:48:49.116Z,1028.45
2016-12-17T10:49:49.097Z,1028.45
2016-12-17T10:50:49.079Z,1028.46
2016-12-17T10:51:49.060Z,1028.45
2016-12-17T10:52:49.043Z,1028.49
2016-12-17T10:53:49.022Z,1028.48
2016-12-17T10:54:49.004Z,1028.56
2016-12-17T10:55:48.988Z,1028.56
2016-12-17T10:56:48.972Z,1028.56
2016-12-17T10:57:48.952Z,1028.57
2016-12-17T10:58:48.934Z,1028.53
2016-12-17T10:59:48.915Z,1028.58
2016-12-17T11:00:48.949Z,1028.53
2016-12-17T11:01:48.887Z,1028.53
2016-12-17T11:02:48.865Z,1028.54
2016-12-17T11:03:48.846Z,1028.48
2016-12-17T11:04:48.829Z,1028.44
2016-12-17T11:05:48.809Z,1028.45
2016-12-17T11:06:48.796Z,1028.45
2016-12-17T11:07:48.774Z,1028.44
2016-12-17T11:08:48.758Z,1028.46
2016-12-17T11:09:48.737Z,1028.46
2016-12-17T11:10:48.720Z,1028.41
2016-12-17T11:11:48.700Z,1028.38
2016-12-17T11:12:48.686Z,1028.35
2016-12-17T11:13:48.666Z,1028.35
2016-12-17T11:14:48.650Z,1028.36
2016-12-17T11:15:48.631Z,1028.32
2016-12-17T11:16:48.614Z,1028.33
2016-12-17T11:17:48.596Z,1028.33
2016-12-17T11:18:48.579Z,1028.35
2016-12-17T11:19:48.560Z,1028.38
2016-12-17T11:20:48.541Z,1028.34
2016-12-17T11:21:48.523Z,1028.34
2016-12-17T11:22:48.505Z,1028.34
2016-12-17T11:23:48.488Z,1028.32
2016-12-17T11:24:48.471Z,1028.35
2016-12-17T11:25:48.456Z,1028.31
2016-12-17T11:26:48.438Z,1028.3
2016-12-17T11:27:48.416Z,1028.31
2016-12-17T11:28:48.401Z,1028.3
2016-12-17T11:29:48.389Z,1028.33
2016-12-17T11:30:48.364Z,1028.32
2016-12-17T11:31:48.348Z,1028.31
2016-12-17T11:32:48.331Z,1028.32
2016-12-17T11:33:48.310Z,1028.3
2016-12-17T11:34:48.291Z,1028.34
2016-12-17T11:35:48.273Z,1028.32
2016-12-17T11:36:48.256Z,1028.29
2016-12-17T11:37:48.241Z,1028.25
2016-12-17T11:38:48.222Z,1028.25
2016-12-17T11:39:48.203Z,1028.25
2016-12-17T11:40:48.185Z,1028.27
2016-12-17T11:41:48.164Z,1028.24
2016-12-17T11:42:48.148Z,1028.23
2016-12-17T11:43:48.133Z,1028.23
2016-12-17T11:44:48.111Z,1028.28
2016-12-17T11:45:48.093Z,1028.27
2016-12-17T11:46:48.077Z,1028.27
2016-12-17T11:47:48.058Z,1028.25
2016-12-17T11:48:48.040Z,1028.23
2016-12-17T11:49:48.022Z,1028.22
2016-12-17T11:50:48.005Z,1028.21
2016-12-17T11:51:47.985Z,1028.18
2016-12-17T11:52:47.969Z,1028.18
2016-12-17T11:53:47.952Z,1028.16
2016-12-17T11:54:47.938Z,1028.18
2016-12-17T11:55:47.923Z,1028.16
2016-12-17T11:56:47.905Z,1028.18
2016-12-17T11:57:47.883Z,1028.23
2016-12-17T11:58:47.866Z,1028.19
2016-12-17T11:59:47.846Z,1028.24
2016-12-17T12:00:47.830Z,1028.23
2016-12-17T12:01:47.814Z,1028.27
2016-12-17T12:02:47.795Z,1028.23
2016-12-17T12:03:47.781Z,1028.3
2016-12-17T12:04:47.760Z,1028.32
2016-12-17T12:05:47.743Z,1028.35
2016-12-17T12:06:47.776Z,1028.32
2016-12-17T12:07:47.719Z,1028.31